This is the latest recevied weather packets stored in our database for station/object JH0FOG-13. If no packets are shown the sender has not sent any weather packets the latest 10 day(s).
| Time | Temp. | Humidity | Pressure | Rain* | Wind** | Luminosity | Snow |
|---|---|---|---|---|---|---|---|
| 1777816801 | 14.44° C | 94% | 999.8 hPa | 0.76 mm | - | - | - |
| 1777815601 | 14.44° C | 93% | 1000.2 hPa | 0.76 mm | - | - | - |
| 1777814401 | 14.44° C | 93% | 1000.8 hPa | 1.02 mm | - | - | - |
| 1777813201 | 14.44° C | 93% | 1001.5 hPa | 1.78 mm | - | - | - |
| 1777812001 | 15° C | 93% | 1002 hPa | 2.54 mm | - | - | - |
| 1777810801 | 15° C | 92% | 1002.9 hPa | 3.56 mm | - | - | - |
| 1777809601 | 15° C | 92% | 1003.2 hPa | 3.05 mm | - | - | - |
| 1777808401 | 15° C | 91% | 1003.4 hPa | 3.05 mm | - | - | - |
| 1777807201 | 15.56° C | 90% | 1003.5 hPa | 2.03 mm | - | - | - |
| 1777806001 | 15.56° C | 89% | 1003.7 hPa | 1.78 mm | - | - | - |
| 1777804802 | 16.11° C | 86% | 1003.5 hPa | 1.02 mm | - | - | - |
| 1777803602 | 16.67° C | 83% | 1003.2 hPa | 0.51 mm | - | - | - |
| 1777802402 | 16.67° C | 82% | 1003.3 hPa | 0.25 mm | - | - | - |
| 1777801202 | 17.22° C | 79% | 1003.5 hPa | 0 mm | - | - | - |
| 1777800001 | 19.44° C | 70% | 1003.4 hPa | 0 mm | - | - | - |
| 1777798801 | 21.11° C | 53% | 1003.6 hPa | 0 mm | - | - | - |
| 1777797601 | 22.22° C | 48% | 1003.5 hPa | 0 mm | - | - | - |
| 1777796401 | 22.78° C | 47% | 1003.1 hPa | 0 mm | - | - | - |
| 1777795201 | 23.33° C | 47% | 1003.2 hPa | 0 mm | - | - | - |
| 1777794001 | 23.89° C | 47% | 1003.3 hPa | 0 mm | - | - | - |
| 1777792801 | 25° C | 42% | 1003.1 hPa | 0 mm | - | - | - |
| 1777791601 | 25.56° C | 38% | 1002.9 hPa | 0 mm | - | - | - |
| 1777790402 | 26.11° C | 36% | 1002.8 hPa | 0 mm | - | - | - |
| 1777789202 | 26.11° C | 35% | 1002.7 hPa | 0 mm | - | - | - |
| 1777788002 | 26.11° C | 35% | 1002.7 hPa | 0 mm | - | - | - |
* Rain latest hour (hover to see other rain measurements)
** Current wind speed in m/s (hover to see current wind gust speed)